Provincetown Municipal, MA

5:02 AM EDT on May 22, 2015 (GMT -0400)
Chatham Municipal | | Change Station
CLOSE
Current Station
Airport
Location: Chatham,
Elevation: 66 ft
Nearby Weather Stations

Elev 66 ft 41.69 °N, 69.99 °W | Updated 10 minutes ago

Rain
Rain
48 °F
Feels Like 48 °F
N
5
Wind Variable Wind from SE

Today
High -- | Low -- °F
--% Chance of Precip.
Yesterday
High -- | Low -- °F
Precip. -- in
5:14 AM 8:01 PM
Waxing Crescent, 20% visible
Pressure 29.86 in
Visibility 8.0 miles
Clouds Mostly Cloudy 1500 ft
Mostly Cloudy 5000 ft
Overcast 6500 ft
Dew Point 47 °F
Humidity 96%
Rainfall 0.30 in
Snow Depth Not available.
UV 0 out of 12
Pollen 10.30 out of 12
Air Quality Not available.
Flu Activity Widespread
METAR KCQX 220852Z AUTO 14004KT 8SM -RA BKN015 BKN050 OVC065 09/08 A2985 RMK AO2 SLP109 P0006 60023 T00890083 58010 $

More Conditions Fewer Conditions

Pressure 29.86 in
Visibility 8.0 miles
Clouds Mostly Cloudy 1500 ft
Mostly Cloudy 5000 ft
Overcast 6500 ft
Dew Point 47 °F
Humidity 96%
Rainfall 0.30 in
Snow Depth Not available.
UV 0 out of 12
Pollen 10.30 out of 12
Air Quality Not available.
Flu Activity Widespread
METAR KCQX 220852Z AUTO 14004KT 8SM -RA BKN015 BKN050 OVC065 09/08 A2985 RMK AO2 SLP109 P0006 60023 T00890083 58010 $

More Conditions Fewer Conditions

10-Day Weather Forecast

Almanac

Astronomy

May. 22, 2015 Rise Set
Actual Time
Civil Twilight
Nautical Twilight
Astronomical Twilight
Moon
Length of Visible Light
Length of Day
Tomorrow will be .
, % of the Moon is Illuminated

Today's Extremes

State Highs State Lows

Community

WunderPhotos

Upload Photos

1,823,195 photos uploaded!

WunderBlogs® & News

Nearby

Air Quality

  Air Quality AQ Index Pollutant
Not available.

Snow Depth

Station Depth Elevation

Earthquake Activity

City Distance Mag. Time & Date
Minimum magnitude displayed is 2.5.

Coastal Water Temperatures

Place Temperature

Stations

Nearby Weather Stations

Station Location Temp. Windchill Dew Point Humidity Wind Precip. Elev Updated Type